Time;durP1;ratioP1;P1;durP2;ratioP2;P2;SDS_P1;SDS_P2;PMS_P1;PMS_P2;Temp;Humidity;BMP_temperature;BMP_pressure;BME280_temperature;BME280_humidity;BME280_pressure;Samples;Min_cycle;Max_cycle;Signal;HPM_P1;HPM_P2
2024/01/01 00:02:19;;;;;;;10.80;4.77;;;3.60;99.90;;;;;;4974720;28;20245;-67
2024/01/01 00:04:44;;;;;;;9.57;4.33;;;3.60;99.90;;;;;;4991407;28;20518;-67
2024/01/01 00:07:10;;;;;;;8.70;3.87;;;3.60;99.90;;;;;;4989948;28;20229;-66
2024/01/01 00:09:35;;;;;;;9.13;4.57;;;3.60;99.90;;;;;;4991509;28;20672;-66
2024/01/01 00:12:01;;;;;;;11.93;4.07;;;3.70;99.90;;;;;;4992898;28;20194;-66
2024/01/01 00:14:26;;;;;;;10.70;3.83;;;4.20;99.90;;;;;;4978371;28;20188;-66
2024/01/01 00:16:52;;;;;;;10.33;4.00;;;3.80;99.90;;;;;;4990867;28;20224;-66
2024/01/01 00:19:17;;;;;;;10.83;3.40;;;3.80;99.90;;;;;;4981615;28;20278;-66
2024/01/01 00:21:43;;;;;;;7.30;3.73;;;3.90;99.90;;;;;;4992714;28;20207;-67
2024/01/01 00:24:09;;;;;;;12.40;3.33;;;4.00;99.90;;;;;;4980743;28;20194;-67
2024/01/01 00:26:34;;;;;;;10.40;3.67;;;4.00;99.90;;;;;;4988822;28;20427;-67
2024/01/01 00:29:00;;;;;;;11.67;4.40;;;4.00;99.90;;;;;;4992836;28;20198;-67
2024/01/01 00:31:26;;;;;;;8.43;4.97;;;4.00;99.90;;;;;;4992658;28;20266;-67
2024/01/01 00:33:51;;;;;;;8.20;4.40;;;4.10;99.90;;;;;;4993008;28;20572;-67
2024/01/01 00:36:17;;;;;;;9.60;4.50;;;4.10;99.90;;;;;;4992338;28;20180;-67
2024/01/01 00:38:42;;;;;;;12.30;3.67;;;4.20;99.90;;;;;;4981296;28;20729;-67
2024/01/01 00:41:15;;;;;;;7.83;3.53;;;4.30;99.90;;;;;;4992206;28;20218;-67
2024/01/01 00:43:43;;;;;;;10.53;4.17;;;4.30;99.90;;;;;;4991500;28;20180;-67
2024/01/01 00:46:08;;;;;;;9.37;3.90;;;4.20;99.90;;;;;;4992297;28;20900;-66
2024/01/01 00:48:34;;;;;;;12.70;4.13;;;4.20;99.90;;;;;;4992753;28;20462;-66
2024/01/01 00:50:59;;;;;;;11.43;4.37;;;4.10;99.90;;;;;;4992280;28;20214;-66
2024/01/01 00:53:25;;;;;;;9.53;4.70;;;4.10;99.90;;;;;;4992851;28;20207;-66
2024/01/01 00:55:50;;;;;;;10.27;4.40;;;4.00;99.90;;;;;;4982883;28;20279;-67
2024/01/01 00:58:16;;;;;;;13.13;4.03;;;3.90;99.90;;;;;;4978814;28;20208;-66
2024/01/01 01:00:41;;;;;;;12.37;3.50;;;3.90;99.90;;;;;;4979187;28;20299;-67
2024/01/01 01:03:07;;;;;;;12.40;3.57;;;4.00;99.90;;;;;;4991638;28;20234;-67
2024/01/01 01:05:32;;;;;;;13.23;4.67;;;4.00;99.90;;;;;;4992180;28;20184;-67
2024/01/01 01:07:58;;;;;;;11.60;3.57;;;4.00;99.90;;;;;;4988090;28;20188;-67
2024/01/01 01:10:24;;;;;;;7.20;3.67;;;4.10;99.90;;;;;;4991843;28;20176;-67
2024/01/01 01:12:53;;;;;;;9.43;3.90;;;4.20;99.90;;;;;;4992282;28;20532;-67
2024/01/01 01:15:19;;;;;;;14.17;3.77;;;4.20;99.90;;;;;;4992208;28;20429;-66
2024/01/01 01:17:44;;;;;;;9.53;4.20;;;4.30;99.90;;;;;;4992342;28;20782;-67
2024/01/01 01:20:10;;;;;;;14.10;5.33;;;4.30;99.90;;;;;;4991839;28;20478;-67
2024/01/01 01:22:36;;;;;;;11.20;4.67;;;4.40;99.90;;;;;;4992383;28;20645;-67
2024/01/01 01:25:01;;;;;;;13.23;5.07;;;4.30;99.90;;;;;;4989660;28;20195;-66
2024/01/01 01:27:27;;;;;;;7.80;3.70;;;5.00;99.90;;;;;;4990980;28;20624;-67
2024/01/01 01:29:52;;;;;;;7.10;4.00;;;4.30;99.90;;;;;;4992115;28;20184;-66
2024/01/01 01:32:18;;;;;;;8.50;4.00;;;4.20;99.90;;;;;;4992354;28;20219;-66
2024/01/01 01:34:43;;;;;;;12.23;4.53;;;4.20;99.90;;;;;;4992013;28;20548;-66
2024/01/01 01:37:09;;;;;;;8.30;4.73;;;4.20;99.90;;;;;;4988802;28;20228;-66
2024/01/01 01:39:35;;;;;;;10.57;4.20;;;4.00;99.90;;;;;;4984678;28;20203;-66
2024/01/01 01:42:01;;;;;;;7.73;3.30;;;3.90;99.90;;;;;;4991640;28;20836;-66
2024/01/01 01:44:27;;;;;;;9.90;5.37;;;3.90;99.90;;;;;;4992025;28;20242;-66
2024/01/01 01:46:52;;;;;;;7.33;3.83;;;3.90;99.90;;;;;;4991900;28;20187;-66
2024/01/01 01:49:18;;;;;;;11.70;4.13;;;3.90;99.90;;;;;;4992315;28;21213;-66
2024/01/01 01:51:47;;;;;;;11.27;3.93;;;3.90;99.90;;;;;;4991682;28;20219;-66
2024/01/01 01:54:13;;;;;;;14.03;4.83;;;3.90;99.90;;;;;;4992245;28;20543;-66
2024/01/01 01:56:38;;;;;;;16.10;4.80;;;3.80;99.90;;;;;;4977301;28;20922;-66
2024/01/01 01:59:04;;;;;;;10.37;4.90;;;3.80;99.90;;;;;;4987669;28;20509;-66
2024/01/01 02:01:30;;;;;;;21.50;4.50;;;3.80;99.90;;;;;;4981225;28;20624;-66
2024/01/01 02:03:56;;;;;;;8.40;4.80;;;3.70;99.90;;;;;;4995828;28;20521;-66
2024/01/01 02:06:22;;;;;;;13.13;3.97;;;3.70;99.90;;;;;;4995198;28;20505;-66
2024/01/01 02:08:47;;;;;;;9.93;4.97;;;3.80;99.90;;;;;;4991019;28;20187;-66
2024/01/01 02:11:13;;;;;;;12.70;5.10;;;3.80;99.90;;;;;;4995225;28;20195;-66
2024/01/01 02:13:38;;;;;;;13.57;4.57;;;3.70;99.90;;;;;;4995528;28;20187;-66
2024/01/01 02:16:04;;;;;;;9.07;3.77;;;3.70;99.90;;;;;;4995350;28;20267;-66
2024/01/01 02:18:29;;;;;;;23.13;4.70;;;3.80;99.90;;;;;;4995719;28;20187;-66
2024/01/01 02:20:56;;;;;;;9.03;3.90;;;3.70;99.90;;;;;;4994838;28;20316;-66
2024/01/01 02:23:21;;;;;;;12.27;4.53;;;3.70;99.90;;;;;;4995321;28;20184;-67
2024/01/01 02:25:47;;;;;;;10.63;5.07;;;3.80;99.90;;;;;;4991423;28;20469;-66
2024/01/01 02:28:14;;;;;;;16.10;6.00;;;3.70;99.90;;;;;;4995011;28;20176;-66
2024/01/01 02:30:39;;;;;;;9.10;5.60;;;4.10;99.90;;;;;;4994750;28;20423;-66
2024/01/01 02:33:09;;;;;;;8.10;4.60;;;3.80;99.90;;;;;;4995188;28;20438;-66
2024/01/01 02:35:36;;;;;;;11.70;6.20;;;3.80;99.90;;;;;;4994602;28;20184;-67
2024/01/01 02:38:04;;;;;;;14.03;5.83;;;3.90;99.90;;;;;;4984475;28;20820;-66
2024/01/01 02:40:33;;;;;;;10.83;5.33;;;3.90;99.90;;;;;;4968569;28;20459;-66
2024/01/01 02:43:00;;;;;;;10.60;4.90;;;3.80;99.90;;;;;;4994618;28;20434;-66
2024/01/01 02:45:27;;;;;;;8.00;4.50;;;3.80;99.90;;;;;;4994633;28;20410;-66
2024/01/01 02:47:53;;;;;;;15.77;6.83;;;3.80;99.90;;;;;;4994734;28;20419;-66
2024/01/01 02:50:20;;;;;;;12.80;6.23;;;3.70;99.90;;;;;;4994953;28;20437;-67
2024/01/01 02:52:46;;;;;;;9.93;5.10;;;3.70;99.90;;;;;;4994843;28;20450;-66
2024/01/01 02:55:11;;;;;;;11.10;5.13;;;3.70;99.90;;;;;;4990727;28;20901;-66
2024/01/01 02:57:37;;;;;;;14.10;5.53;;;3.70;99.90;;;;;;4975101;28;20420;-66
2024/01/01 03:00:03;;;;;;;13.23;4.93;;;3.70;99.90;;;;;;4986286;28;20205;-67
2024/01/01 03:02:29;;;;;;;13.23;5.00;;;3.70;99.90;;;;;;4988172;28;20684;-67
2024/01/01 03:04:54;;;;;;;12.13;4.67;;;3.70;99.90;;;;;;4977851;28;20435;-66
2024/01/01 03:07:20;;;;;;;11.83;4.67;;;3.70;99.90;;;;;;4987611;28;20191;-66
2024/01/01 03:09:46;;;;;;;10.03;3.50;;;3.80;99.90;;;;;;4983166;28;20184;-66
2024/01/01 03:12:11;;;;;;;7.50;3.80;;;3.80;99.90;;;;;;4993810;28;20429;-67
2024/01/01 03:14:37;;;;;;;9.67;4.00;;;3.90;99.90;;;;;;4993870;28;20199;-67
2024/01/01 03:17:03;;;;;;;8.17;3.77;;;3.80;99.90;;;;;;4994260;28;20267;-66
2024/01/01 03:19:28;;;;;;;10.57;2.80;;;3.80;99.90;;;;;;4994368;28;20203;-66
2024/01/01 03:21:54;;;;;;;8.33;4.13;;;3.90;99.90;;;;;;4993947;28;20199;-66
2024/01/01 03:24:19;;;;;;;9.40;3.80;;;4.00;99.90;;;;;;4994350;28;20184;-66
2024/01/01 03:26:45;;;;;;;5.10;2.70;;;4.00;99.90;;;;;;4989724;28;20180;-66
2024/01/01 03:29:10;;;;;;;4.23;2.57;;;4.10;99.90;;;;;;4994095;28;20183;-66
2024/01/01 03:31:36;;;;;;;8.63;3.00;;;4.10;99.90;;;;;;4994342;28;20188;-65
2024/01/01 03:34:01;;;;;;;6.77;1.90;;;4.10;99.90;;;;;;4994174;28;20188;-65
2024/01/01 03:36:27;;;;;;;7.27;2.73;;;4.10;99.90;;;;;;4993663;28;20308;-65
2024/01/01 03:38:52;;;;;;;7.80;2.17;;;4.10;99.90;;;;;;4981969;28;20691;-65
2024/01/01 03:41:18;;;;;;;9.33;1.87;;;4.10;99.90;;;;;;4993608;28;20676;-65
2024/01/01 03:43:43;;;;;;;3.50;1.40;;;4.20;99.90;;;;;;4992825;28;20172;-65
2024/01/01 03:46:09;;;;;;;5.00;1.87;;;4.60;99.90;;;;;;4993599;28;20195;-65
2024/01/01 03:48:34;;;;;;;5.73;2.40;;;4.20;99.90;;;;;;4993922;28;20279;-65
2024/01/01 03:50:59;;;;;;;2.70;1.30;;;4.20;99.90;;;;;;4993211;28;20257;-65
2024/01/01 03:53:25;;;;;;;8.90;2.50;;;4.20;99.90;;;;;;4993373;28;20266;-65
2024/01/01 03:55:50;;;;;;;8.43;2.47;;;4.20;99.90;;;;;;4983824;28;20649;-65
2024/01/01 03:58:16;;;;;;;4.10;2.27;;;4.20;99.90;;;;;;4979248;28;20288;-65
2024/01/01 04:00:42;;;;;;;2.77;1.53;;;4.20;99.90;;;;;;4979874;28;20646;-65
2024/01/01 04:03:07;;;;;;;3.87;1.93;;;4.20;99.90;;;;;;4991784;28;20192;-65
2024/01/01 04:05:33;;;;;;;3.90;1.70;;;4.10;99.90;;;;;;4993041;28;20254;-66
2024/01/01 04:07:58;;;;;;;7.83;1.70;;;4.00;99.90;;;;;;4988551;28;20184;-65
2024/01/01 04:10:23;;;;;;;4.57;1.70;;;4.00;99.90;;;;;;4993082;28;20577;-65
2024/01/01 04:12:49;;;;;;;4.50;1.63;;;3.90;99.90;;;;;;4993103;28;20196;-65
2024/01/01 04:15:15;;;;;;;9.53;1.70;;;4.00;99.90;;;;;;4992942;28;20699;-65
2024/01/01 04:17:40;;;;;;;5.23;1.90;;;3.90;99.90;;;;;;4993322;28;20215;-65
2024/01/01 04:20:10;;;;;;;2.90;0.83;;;3.90;99.90;;;;;;4992024;28;20203;-65
2024/01/01 04:22:37;;;;;;;2.13;1.27;;;3.90;99.90;;;;;;4993228;28;20183;-65
2024/01/01 04:25:03;;;;;;;2.50;1.20;;;3.90;99.90;;;;;;4990081;28;20908;-65
2024/01/01 04:27:29;;;;;;;2.33;1.20;;;3.90;99.90;;;;;;4991656;28;20415;-65
2024/01/01 04:29:54;;;;;;;2.80;1.30;;;3.90;99.90;;;;;;4993035;28;20493;-65
2024/01/01 04:32:20;;;;;;;2.53;1.23;;;3.90;99.90;;;;;;4992744;28;20222;-65
2024/01/01 04:34:45;;;;;;;3.70;1.77;;;3.90;99.90;;;;;;4992435;28;20183;-65
2024/01/01 04:37:11;;;;;;;2.43;0.83;;;3.90;99.90;;;;;;4989079;28;20319;-65
2024/01/01 04:39:36;;;;;;;1.87;0.83;;;3.90;99.90;;;;;;4984359;28;20610;-65
2024/01/01 04:42:03;;;;;;;5.03;1.37;;;3.90;99.90;;;;;;4992545;28;20651;-65
2024/01/01 04:44:29;;;;;;;3.97;1.20;;;3.90;99.90;;;;;;4991239;28;20694;-65
2024/01/01 04:46:54;;;;;;;1.60;0.80;;;3.80;99.90;;;;;;4992387;28;20423;-65
2024/01/01 04:49:20;;;;;;;1.53;0.73;;;3.80;99.90;;;;;;4992840;28;20841;-65
2024/01/01 04:51:45;;;;;;;2.20;1.07;;;3.80;99.90;;;;;;4992250;28;20202;-65
2024/01/01 04:54:11;;;;;;;1.30;0.50;;;3.80;99.90;;;;;;4992797;28;20237;-65
2024/01/01 04:56:36;;;;;;;2.70;1.10;;;3.80;99.90;;;;;;4976859;28;20264;-65
2024/01/01 04:59:03;;;;;;;8.63;0.93;;;3.80;99.90;;;;;;4973005;28;20286;-65
2024/01/01 05:01:28;;;;;;;1.90;0.80;;;3.90;99.90;;;;;;4976034;28;20179;-65
2024/01/01 05:03:54;;;;;;;2.20;0.90;;;3.90;99.90;;;;;;4985197;28;20509;-65
2024/01/01 05:06:19;;;;;;;19.17;1.13;;;3.80;99.90;;;;;;4981968;28;20191;-65
2024/01/01 05:08:45;;;;;;;1.70;0.70;;;3.80;99.90;;;;;;4987781;28;20198;-65
2024/01/01 05:11:10;;;;;;;11.13;1.47;;;4.20;99.90;;;;;;4992133;28;20243;-65
2024/01/01 05:13:37;;;;;;;1.93;1.20;;;3.80;99.90;;;;;;4992670;28;20195;-65
2024/01/01 05:16:03;;;;;;;6.80;1.47;;;3.70;99.90;;;;;;4992157;28;20180;-65
2024/01/01 05:18:29;;;;;;;3.60;1.17;;;3.60;99.90;;;;;;4992645;28;20450;-65
2024/01/01 05:20:54;;;;;;;2.20;1.20;;;3.60;99.90;;;;;;4991810;28;20942;-65
2024/01/01 05:23:19;;;;;;;2.53;1.30;;;3.60;99.90;;;;;;4992617;28;20184;-65
2024/01/01 05:25:45;;;;;;;7.60;2.23;;;3.50;99.90;;;;;;4988520;28;20180;-66
2024/01/01 05:28:10;;;;;;;2.57;1.23;;;3.50;99.90;;;;;;4992325;28;20277;-65
2024/01/01 05:30:36;;;;;;;3.83;1.27;;;3.40;99.90;;;;;;4993086;28;20278;-65
2024/01/01 05:33:02;;;;;;;3.00;1.17;;;3.40;99.90;;;;;;4996252;28;20187;-65
2024/01/01 05:35:27;;;;;;;2.60;1.50;;;3.40;99.90;;;;;;4995580;28;20263;-65
2024/01/01 05:37:54;;;;;;;5.00;2.00;;;3.40;99.90;;;;;;4986957;28;20239;-65
2024/01/01 05:40:20;;;;;;;7.00;1.33;;;3.30;99.90;;;;;;4993516;28;20228;-65
2024/01/01 05:42:46;;;;;;;4.50;1.27;;;3.40;99.90;;;;;;4994203;28;21276;-65
2024/01/01 05:45:11;;;;;;;8.27;2.13;;;3.30;99.90;;;;;;4993001;28;20202;-65
2024/01/01 05:47:37;;;;;;;2.53;1.10;;;3.30;99.90;;;;;;4995963;28;20238;-65
2024/01/01 05:50:02;;;;;;;9.77;1.37;;;3.40;99.90;;;;;;4995447;28;20610;-65
2024/01/01 05:52:29;;;;;;;14.40;1.63;;;3.40;99.90;;;;;;4996226;28;20192;-65
2024/01/01 05:54:54;;;;;;;2.00;0.93;;;3.50;99.90;;;;;;4993726;28;20184;-65
2024/01/01 05:57:20;;;;;;;5.37;1.47;;;3.50;99.90;;;;;;4976152;28;20477;-65
2024/01/01 05:59:46;;;;;;;3.87;1.23;;;3.50;99.90;;;;;;4987936;28;20204;-65
2024/01/01 06:02:11;;;;;;;1.90;1.00;;;4.00;99.90;;;;;;4987245;28;20315;-65
2024/01/01 06:04:37;;;;;;;7.23;1.23;;;3.40;99.90;;;;;;4995709;28;20198;-65
2024/01/01 06:07:02;;;;;;;2.90;1.00;;;3.40;99.90;;;;;;4992833;28;20187;-65
2024/01/01 06:09:28;;;;;;;3.00;0.97;;;3.40;99.90;;;;;;4993345;28;20184;-65
2024/01/01 06:11:53;;;;;;;3.23;1.43;;;3.40;99.90;;;;;;4995164;28;20295;-65
2024/01/01 06:14:19;;;;;;;6.00;2.00;;;3.40;99.90;;;;;;4995397;28;20195;-65
2024/01/01 06:16:44;;;;;;;1.80;1.03;;;3.40;99.90;;;;;;4977819;28;20203;-65
2024/01/01 06:19:10;;;;;;;6.90;1.20;;;3.50;99.90;;;;;;4995111;28;20192;-65
2024/01/01 06:21:36;;;;;;;2.73;0.90;;;3.50;99.90;;;;;;4994909;28;20198;-65
2024/01/01 06:24:01;;;;;;;3.03;1.00;;;3.50;99.90;;;;;;4986976;28;20438;-65
2024/01/01 06:26:27;;;;;;;4.37;1.70;;;3.50;99.90;;;;;;4988683;28;20187;-65
2024/01/01 06:28:52;;;;;;;7.10;1.30;;;3.50;99.90;;;;;;4992360;28;20592;-65
2024/01/01 06:31:18;;;;;;;6.60;1.87;;;3.50;99.90;;;;;;4992893;28;20702;-65
2024/01/01 06:33:43;;;;;;;4.13;1.17;;;3.50;99.90;;;;;;4992198;28;20219;-66
2024/01/01 06:36:10;;;;;;;1.93;0.80;;;3.60;99.90;;;;;;4994830;28;20183;-65
2024/01/01 06:38:36;;;;;;;2.23;0.80;;;3.70;99.90;;;;;;4983430;28;20274;-65
2024/01/01 06:41:02;;;;;;;7.50;1.07;;;3.80;99.90;;;;;;4994613;28;20471;-65
2024/01/01 06:43:28;;;;;;;4.00;1.10;;;3.80;99.90;;;;;;4992470;28;20430;-65
2024/01/01 06:45:53;;;;;;;3.77;1.47;;;3.70;99.90;;;;;;4977187;28;20274;-65
2024/01/01 06:48:19;;;;;;;2.60;0.80;;;3.70;99.90;;;;;;4994805;28;20270;-65
2024/01/01 06:50:44;;;;;;;3.20;1.17;;;3.70;99.90;;;;;;4994229;28;20195;-65
2024/01/01 06:53:10;;;;;;;1.97;0.90;;;3.80;99.90;;;;;;4994594;28;20195;-65
2024/01/01 06:55:35;;;;;;;5.90;1.20;;;3.80;99.90;;;;;;4987279;28;20184;-65
2024/01/01 06:58:01;;;;;;;6.00;1.23;;;4.30;99.90;;;;;;4978123;28;20207;-65
2024/01/01 07:00:26;;;;;;;4.60;1.23;;;3.70;99.90;;;;;;4983211;28;20657;-65
2024/01/01 07:02:52;;;;;;;2.47;0.70;;;3.80;99.90;;;;;;4991337;28;20250;-66
2024/01/01 07:05:17;;;;;;;6.10;1.30;;;3.80;99.90;;;;;;4994203;28;20219;-65
2024/01/01 07:07:44;;;;;;;6.93;1.47;;;3.80;99.90;;;;;;4989708;28;20218;-65
2024/01/01 07:10:09;;;;;;;7.10;1.33;;;3.90;99.90;;;;;;4994169;28;20431;-65
2024/01/01 07:12:35;;;;;;;8.80;1.20;;;3.90;99.90;;;;;;4994052;28;20243;-65
2024/01/01 07:15:01;;;;;;;11.67;1.67;;;3.80;99.90;;;;;;4994462;28;20214;-65
2024/01/01 07:17:27;;;;;;;3.80;1.00;;;3.80;99.90;;;;;;4994166;28;20626;-65
2024/01/01 07:19:52;;;;;;;2.70;0.80;;;3.70;99.90;;;;;;4993840;28;20212;-66
2024/01/01 07:22:18;;;;;;;5.33;1.13;;;3.60;99.90;;;;;;4994144;28;20899;-65
2024/01/01 07:24:44;;;;;;;5.13;1.00;;;4.10;99.90;;;;;;4993719;28;20222;-65
2024/01/01 07:27:09;;;;;;;1.10;0.50;;;3.50;99.90;;;;;;4990334;28;20188;-65
2024/01/01 07:29:35;;;;;;;1.47;0.90;;;3.50;99.90;;;;;;4994292;28;20195;-65
2024/01/01 07:32:00;;;;;;;5.93;1.93;;;3.50;99.90;;;;;;4993847;28;20196;-66
2024/01/01 07:34:26;;;;;;;5.00;1.70;;;3.40;99.90;;;;;;4993971;28;20532;-65
2024/01/01 07:36:54;;;;;;;8.67;0.67;;;3.40;99.90;;;;;;4992231;28;20593;-65
2024/01/01 07:39:20;;;;;;;4.47;1.30;;;3.40;99.90;;;;;;4983968;28;20423;-65
2024/01/01 07:41:49;;;;;;;8.77;1.10;;;3.40;99.90;;;;;;4993240;28;20454;-66
2024/01/01 07:44:15;;;;;;;2.30;1.07;;;3.40;99.90;;;;;;4993346;28;20431;-65
2024/01/01 07:46:45;;;;;;;3.13;1.20;;;3.40;99.90;;;;;;4993551;28;20485;-65
2024/01/01 07:49:11;;;;;;;4.83;1.20;;;3.40;99.90;;;;;;4983008;28;20188;-65
2024/01/01 07:51:37;;;;;;;5.83;1.33;;;3.50;99.90;;;;;;4986960;28;20946;-66
2024/01/01 07:54:03;;;;;;;2.63;1.20;;;3.50;99.90;;;;;;4993577;28;20233;-67
2024/01/01 07:56:28;;;;;;;1.13;0.57;;;3.50;99.90;;;;;;4963520;28;20656;-66
2024/01/01 07:58:54;;;;;;;7.43;1.10;;;3.50;99.90;;;;;;4975904;28;20193;-66
2024/01/01 08:01:20;;;;;;;2.50;0.90;;;3.60;99.90;;;;;;4977308;28;20203;-66
2024/01/01 08:03:46;;;;;;;5.00;1.17;;;3.60;99.90;;;;;;4992808;28;20228;-66
2024/01/01 08:06:12;;;;;;;8.80;1.17;;;3.70;99.90;;;;;;4992729;28;20971;-66
2024/01/01 08:08:37;;;;;;;7.43;1.50;;;3.70;99.90;;;;;;4988437;28;20947;-66
2024/01/01 08:11:03;;;;;;;2.83;0.67;;;3.70;99.90;;;;;;4993190;28;20230;-67
2024/01/01 08:13:28;;;;;;;2.27;1.10;;;3.70;99.90;;;;;;4993222;28;20215;-67
2024/01/01 08:15:54;;;;;;;18.00;1.47;;;3.70;99.90;;;;;;4993180;28;20184;-67
2024/01/01 08:18:19;;;;;;;13.50;1.00;;;3.60;99.90;;;;;;4993288;28;20521;-67
2024/01/01 08:20:45;;;;;;;2.47;0.93;;;3.60;99.90;;;;;;4992649;28;20690;-67
2024/01/01 08:23:10;;;;;;;3.07;1.20;;;3.70;99.90;;;;;;4993154;28;20198;-66
2024/01/01 08:25:36;;;;;;;9.20;1.03;;;3.70;99.90;;;;;;4989381;28;20195;-68
2024/01/01 08:28:02;;;;;;;18.73;1.87;;;3.70;99.90;;;;;;4992864;28;20207;-67
2024/01/01 08:30:28;;;;;;;1.70;1.00;;;3.70;99.90;;;;;;4992813;28;20907;-66
2024/01/01 08:32:53;;;;;;;3.83;1.10;;;3.80;99.90;;;;;;4992837;28;20636;-66
2024/01/01 08:35:19;;;;;;;5.13;0.90;;;3.80;99.90;;;;;;4979398;28;20532;-66
2024/01/01 08:37:44;;;;;;;5.73;1.50;;;3.90;99.90;;;;;;4952666;28;20229;-66
2024/01/01 08:40:11;;;;;;;6.27;1.90;;;3.90;99.90;;;;;;4986492;28;20629;-66
2024/01/01 08:42:37;;;;;;;5.53;1.20;;;4.00;99.90;;;;;;4992656;28;20579;-66
2024/01/01 08:45:03;;;;;;;6.20;1.33;;;4.20;99.90;;;;;;4991967;28;20461;-66
2024/01/01 08:47:29;;;;;;;3.90;1.50;;;4.20;99.90;;;;;;4992596;28;20418;-66
2024/01/01 08:49:55;;;;;;;3.37;0.77;;;4.30;99.90;;;;;;4989985;28;20433;-66
2024/01/01 08:52:20;;;;;;;3.33;1.53;;;4.40;99.90;;;;;;4992520;28;20190;-66
2024/01/01 08:54:46;;;;;;;1.43;0.97;;;4.40;99.90;;;;;;4991839;28;20974;-66
2024/01/01 08:57:11;;;;;;;1.80;0.80;;;4.70;99.90;;;;;;4973182;28;20194;-66
2024/01/01 08:59:39;;;;;;;8.37;1.30;;;4.70;99.90;;;;;;4984628;28;20735;-66
2024/01/01 09:02:05;;;;;;;3.40;1.03;;;4.70;99.90;;;;;;4978019;28;20176;-66
2024/01/01 09:04:31;;;;;;;7.47;1.53;;;4.70;99.90;;;;;;4966825;28;20418;-67
2024/01/01 09:06:56;;;;;;;4.43;1.03;;;4.70;99.90;;;;;;4996571;28;20914;-66
2024/01/01 09:09:22;;;;;;;1.67;0.70;;;4.80;99.90;;;;;;4973133;28;20195;-66
2024/01/01 09:11:49;;;;;;;6.87;1.43;;;4.90;99.90;;;;;;4998577;28;20258;-66
2024/01/01 09:14:15;;;;;;;3.30;0.70;;;4.80;99.90;;;;;;4989393;28;20175;-66
2024/01/01 09:16:40;;;;;;;4.40;1.20;;;4.90;99.90;;;;;;4998724;28;20895;-67
2024/01/01 09:19:06;;;;;;;2.57;0.80;;;5.00;99.90;;;;;;4998813;28;20414;-66
2024/01/01 09:21:31;;;;;;;2.20;0.80;;;4.90;99.90;;;;;;4998423;28;20234;-68
2024/01/01 09:24:00;;;;;;;8.53;1.40;;;4.90;99.90;;;;;;4998967;28;20533;-68
2024/01/01 09:26:27;;;;;;;5.33;1.27;;;4.90;99.90;;;;;;4984744;28;20187;-66
2024/01/01 09:28:53;;;;;;;2.27;0.97;;;5.00;99.90;;;;;;4998628;28;20513;-66
2024/01/01 09:31:18;;;;;;;4.50;1.70;;;5.00;99.90;;;;;;4998650;28;20529;-66
2024/01/01 09:33:43;;;;;;;2.37;0.70;;;5.00;99.90;;;;;;4998877;28;20199;-66
2024/01/01 09:36:12;;;;;;;7.17;1.20;;;5.00;99.90;;;;;;4989222;28;20291;-67
2024/01/01 09:38:37;;;;;;;14.50;2.23;;;5.10;99.90;;;;;;4982615;28;20235;-67
2024/01/01 09:41:03;;;;;;;6.03;1.47;;;5.20;99.90;;;;;;4983952;28;20495;-66
2024/01/01 09:43:28;;;;;;;5.83;1.40;;;5.20;99.90;;;;;;4981821;28;20181;-66
2024/01/01 09:45:55;;;;;;;6.47;1.40;;;5.20;99.90;;;;;;4980704;28;20188;-66
2024/01/01 09:48:21;;;;;;;4.23;1.10;;;5.40;99.90;;;;;;4983122;28;20581;-66
2024/01/01 09:50:50;;;;;;;6.17;1.23;;;5.50;99.90;;;;;;4997816;28;20423;-68
2024/01/01 09:53:19;;;;;;;10.93;1.63;;;5.70;99.90;;;;;;4985572;28;20184;-68
2024/01/01 09:55:52;;;;;;;5.37;1.47;;;5.50;99.90;;;;;;4990018;28;20428;-66
2024/01/01 09:58:17;;;;;;;4.77;1.53;;;5.60;99.90;;;;;;4984428;28;20442;-66
2024/01/01 10:00:43;;;;;;;12.10;1.83;;;5.70;99.90;;;;;;4984888;28;20471;-66
2024/01/01 10:03:10;;;;;;;4.30;1.03;;;5.70;99.90;;;;;;4997242;28;20198;-66
2024/01/01 10:05:36;;;;;;;2.03;1.00;;;5.70;99.90;;;;;;4998124;28;20184;-66
2024/01/01 10:08:13;;;;;;;3.20;1.23;;;5.80;99.90;;;;;;4993259;28;20437;-67
2024/01/01 10:10:39;;;;;;;1.77;1.00;;;5.80;99.90;;;;;;4998293;28;20982;-66
2024/01/01 10:13:07;;;;;;;3.53;1.00;;;5.80;99.90;;;;;;4998235;28;20815;-67
2024/01/01 10:15:33;;;;;;;5.73;1.60;;;5.90;99.90;;;;;;4998318;28;20422;-68
2024/01/01 10:18:10;;;;;;;2.47;1.30;;;5.90;99.90;;;;;;4994998;28;20434;-68
2024/01/01 10:20:39;;;;;;;5.50;1.70;;;6.00;99.90;;;;;;4994844;28;20204;-67
2024/01/01 10:23:19;;;;;;;2.50;0.90;;;6.00;99.90;;;;;;4995291;28;20509;-67
2024/01/01 10:25:45;;;;;;;2.87;1.00;;;6.00;99.90;;;;;;4990322;28;20425;-68
2024/01/01 10:28:15;;;;;;;2.33;0.93;;;6.10;99.90;;;;;;4989887;28;20528;-68
2024/01/01 10:30:49;;;;;;;1.37;0.80;;;6.10;99.90;;;;;;4987865;28;20621;-68
2024/01/01 10:33:15;;;;;;;5.50;1.77;;;6.10;99.90;;;;;;4993966;28;20526;-68
2024/01/01 10:35:42;;;;;;;8.13;1.27;;;6.20;99.90;;;;;;4992775;28;20502;-68
2024/01/01 10:38:08;;;;;;;7.80;1.20;;;6.30;99.90;;;;;;4983971;28;20512;-68
2024/01/01 10:40:33;;;;;;;3.73;1.10;;;6.40;99.90;;;;;;4994230;28;20462;-68
2024/01/01 10:43:00;;;;;;;3.20;1.10;;;6.40;99.90;;;;;;4994329;28;20440;-68
2024/01/01 10:45:26;;;;;;;4.10;0.83;;;6.30;99.90;;;;;;4994312;28;20637;-68
2024/01/01 10:47:54;;;;;;;5.00;1.47;;;6.50;99.90;;;;;;4995026;28;20430;-68
2024/01/01 10:50:29;;;;;;;12.30;1.47;;;6.70;99.90;;;;;;4994353;28;20649;-67
2024/01/01 10:53:19;;;;;;;3.27;1.03;;;6.60;99.90;;;;;;4977355;28;20978;-67
2024/01/01 10:55:54;;;;;;;3.40;1.03;;;6.70;99.90;;;;;;4986206;28;20436;-68
2024/01/01 10:58:50;;;;;;;2.80;1.07;;;6.60;99.90;;;;;;4980804;28;20422;-68
2024/01/01 11:01:18;;;;;;;2.83;0.80;;;6.60;99.90;;;;;;4979420;28;20989;-67
2024/01/01 11:03:47;;;;;;;6.97;1.10;;;6.60;99.90;;;;;;4994576;28;20994;-67
2024/01/01 11:06:26;;;;;;;5.83;1.27;;;6.70;99.90;;;;;;4993290;28;20427;-67
2024/01/01 11:08:53;;;;;;;13.17;2.07;;;7.10;99.90;;;;;;4974341;28;20434;-67
2024/01/01 11:11:30;;;;;;;3.63;1.30;;;6.80;99.90;;;;;;4982850;28;20597;-67
2024/01/01 11:13:56;;;;;;;4.87;1.17;;;7.10;99.90;;;;;;4981378;28;20446;-67
2024/01/01 11:16:22;;;;;;;3.20;1.30;;;6.80;99.90;;;;;;4986950;28;20452;-67
2024/01/01 11:18:48;;;;;;;3.97;1.30;;;6.70;99.90;;;;;;4987788;28;20937;-67
2024/01/01 11:21:46;;;;;;;2.90;0.80;;;7.80;99.90;;;;;;4993152;28;20471;-67
2024/01/01 11:24:41;;;;;;;6.43;1.37;;;7.60;99.90;;;;;;4951172;28;20200;-67
2024/01/01 11:27:47;;;;;;;8.60;1.60;;;7.00;99.90;;;;;;4985392;28;20426;-67
2024/01/01 11:30:14;;;;;;;7.83;1.67;;;7.10;99.90;;;;;;4982722;28;20454;-67
2024/01/01 11:32:40;;;;;;;4.83;1.23;;;7.10;99.90;;;;;;4994244;28;20462;-68
2024/01/01 11:35:16;;;;;;;3.77;0.80;;;7.20;99.90;;;;;;4993626;28;20465;-68
2024/01/01 11:37:43;;;;;;;6.87;1.00;;;7.30;99.90;;;;;;4993868;28;20470;-69
2024/01/01 11:40:10;;;;;;;7.43;1.27;;;7.20;99.90;;;;;;4992992;28;21024;-67
2024/01/01 11:42:36;;;;;;;3.43;1.50;;;7.10;99.90;;;;;;4993157;28;20863;-67
2024/01/01 11:45:13;;;;;;;5.27;1.27;;;7.00;99.90;;;;;;4976811;28;20921;-64
2024/01/01 11:47:39;;;;;;;5.40;1.33;;;6.90;99.90;;;;;;4983914;28;20846;-64
2024/01/01 11:50:06;;;;;;;2.87;1.93;;;7.10;99.90;;;;;;4989493;28;20439;-65
2024/01/01 11:52:32;;;;;;;2.13;0.70;;;6.90;99.90;;;;;;4993249;28;20758;-65
2024/01/01 11:54:58;;;;;;;1.87;0.93;;;7.40;99.90;;;;;;4990447;28;20477;-64
2024/01/01 11:57:24;;;;;;;5.43;0.80;;;7.30;99.90;;;;;;4973422;28;20432;-64
2024/01/01 11:59:50;;;;;;;3.00;1.13;;;7.10;99.90;;;;;;4984914;28;20665;-66
2024/01/01 12:02:17;;;;;;;2.20;0.80;;;7.20;99.90;;;;;;4984569;28;20230;-64
2024/01/01 12:04:45;;;;;;;9.83;1.87;;;7.00;99.90;;;;;;4992237;28;20180;-65
2024/01/01 12:07:24;;;;;;;2.73;1.17;;;6.80;99.90;;;;;;4989615;28;20439;-65
2024/01/01 12:10:00;;;;;;;3.47;1.17;;;6.60;99.90;;;;;;4967854;28;20423;-65
2024/01/01 12:12:25;;;;;;;1.93;0.93;;;6.30;99.90;;;;;;4992962;28;20888;-65
2024/01/01 12:14:51;;;;;;;12.03;1.23;;;6.00;99.90;;;;;;4993240;28;20438;-65
2024/01/01 12:17:16;;;;;;;2.90;1.50;;;5.90;99.90;;;;;;4993167;28;20204;-65
2024/01/01 12:19:42;;;;;;;5.97;1.03;;;5.70;99.90;;;;;;4987405;28;20229;-65
2024/01/01 12:22:19;;;;;;;3.87;0.87;;;5.70;99.90;;;;;;4982087;28;20191;-69
2024/01/01 12:24:55;;;;;;;5.83;1.40;;;6.10;99.90;;;;;;4987962;28;20180;-69
2024/01/01 12:27:20;;;;;;;9.27;1.20;;;6.10;99.90;;;;;;4989539;28;20518;-65
2024/01/01 12:29:50;;;;;;;4.80;1.27;;;5.70;99.90;;;;;;4962338;28;20817;-65
2024/01/01 12:32:15;;;;;;;2.17;0.93;;;5.80;99.90;;;;;;4975725;28;20188;-68
2024/01/01 12:34:41;;;;;;;4.23;1.43;;;5.80;99.90;;;;;;4992534;28;20538;-68
2024/01/01 12:37:06;;;;;;;7.63;1.27;;;5.90;99.90;;;;;;4989511;28;20288;-68
2024/01/01 12:39:32;;;;;;;6.33;1.93;;;6.20;99.90;;;;;;4983269;28;20207;-69
2024/01/01 12:41:57;;;;;;;4.20;1.73;;;6.00;99.90;;;;;;4987888;28;20688;-69
2024/01/01 12:44:23;;;;;;;10.40;1.63;;;6.10;99.90;;;;;;4979401;28;20197;-68
2024/01/01 12:46:49;;;;;;;3.93;1.17;;;6.20;99.90;;;;;;4980288;28;20175;-65
2024/01/01 12:49:14;;;;;;;13.07;1.93;;;6.40;99.90;;;;;;4992266;28;20829;-66
2024/01/01 12:51:40;;;;;;;10.53;1.80;;;6.50;99.90;;;;;;4985932;28;20291;-65
2024/01/01 12:54:05;;;;;;;3.83;0.90;;;6.50;99.90;;;;;;4992423;28;20266;-65